Time;durP1;ratioP1;P1;durP2;ratioP2;P2;SDS_P1;SDS_P2;PMS_P1;PMS_P2;Temp;Humidity;BMP_temperature;BMP_pressure;BME280_temperature;BME280_humidity;BME280_pressure;Samples;Min_cycle;Max_cycle;Signal;HPM_P1;HPM_P2
2021/09/30 00:00:50;;;;;;;;;0.33;0.33;;;;;15.73;50.73;102296.50;2091838;28;47165;-47
2021/09/30 00:01:51;;;;;;;;;0.67;0.67;;;;;15.72;50.65;102284.03;2091635;28;47405;-48
2021/09/30 00:02:51;;;;;;;;;1.00;0.67;;;;;15.71;50.59;102288.50;2091764;28;45643;-49
2021/09/30 00:03:52;;;;;;;;;1.33;1.00;;;;;15.71;50.30;102287.63;2091577;28;47612;-50
2021/09/30 00:04:52;;;;;;;;;1.00;1.00;;;;;15.72;50.58;102292.06;2091826;28;48729;-50
2021/09/30 00:05:53;;;;;;;;;0.33;0.00;;;;;15.69;50.58;102286.78;2090732;28;48367;-50
2021/09/30 00:06:53;;;;;;;;;0.33;0.33;;;;;15.70;50.68;102288.53;2091241;28;48496;-51
2021/09/30 00:07:54;;;;;;;;;2.00;2.00;;;;;15.68;50.77;102285.88;2091412;28;48200;-51
2021/09/30 00:08:54;;;;;;;;;0.33;0.33;;;;;15.68;50.37;102287.69;2086937;28;47383;-49
2021/09/30 00:09:55;;;;;;;;;2.00;2.00;;;;;15.67;50.39;102285.91;2085263;28;45491;-50
2021/09/30 00:11:05;;;;;;;;;1.25;1.00;;;;;15.66;50.72;102279.69;2091153;28;47231;-50
2021/09/30 00:12:13;;;;;;;;;2.00;1.25;;;;;15.66;50.82;102279.69;2091641;28;47282;-49
2021/09/30 00:18:20;;;;;;;;;1.00;1.00;;;;;15.65;50.66;102285.06;2091351;28;47467;-49
2021/09/30 00:34:41;;;;;;;;;1.00;0.75;;;;;15.57;51.01;102287.81;2091489;28;48429;-50
2021/09/30 00:35:42;;;;;;;;;0.00;0.00;;;;;15.55;50.87;102279.84;2091069;28;48396;-51
2021/09/30 00:40:58;;;;;;;;;1.75;1.75;;;;;15.54;51.13;102270.03;2083376;28;47225;-53
2021/09/30 00:42:04;;;;;;;;;0.00;0.00;;;;;15.53;50.72;102270.94;2091278;28;45369;-50
2021/09/30 00:45:54;;;;;;;;;0.75;0.75;;;;;15.52;51.09;102271.88;2093105;28;45511;-48
2021/09/30 00:48:53;;;;;;;;;0.00;0.00;;;;;15.52;51.04;102276.34;2074098;28;48197;-50
2021/09/30 00:50:07;;;;;;;;;0.50;0.50;;;;;15.51;51.03;102270.09;2079920;28;47422;-50
2021/09/30 00:52:17;;;;;;;;;0.00;0.00;;;;;15.53;51.06;102272.75;2082379;28;46014;-51
2021/09/30 00:54:37;;;;;;;;;0.50;0.00;;;;;15.53;51.18;102275.41;2084703;28;46664;-50
2021/09/30 01:23:17;;;;;;;;;0.00;0.00;;;;;15.48;51.16;102254.06;2088222;28;47328;-49
2021/09/30 01:40:10;;;;;;;;;0.00;0.00;;;;;15.44;51.41;102251.50;2091096;28;47113;-48
2021/09/30 01:46:13;;;;;;;;;1.25;0.00;;;;;15.41;51.90;102255.13;2092275;28;47640;-49
2021/09/30 01:59:16;;;;;;;;;1.50;1.00;;;;;15.37;51.84;102248.03;2091043;28;47250;-50
2021/09/30 02:20:34;;;;;;;;;1.00;1.00;;;;;15.27;51.91;102247.31;2091908;28;47968;-48
2021/09/30 02:22:03;;;;;;;;;0.00;0.00;;;;;15.26;51.68;102248.22;2085621;28;48492;-50
2021/09/30 02:58:41;;;;;;;;;1.00;1.00;;;;;15.15;52.38;102220.78;2092327;28;48164;-51
2021/09/30 02:59:42;;;;;;;;;1.00;1.00;;;;;15.15;52.70;102215.44;2092147;28;48381;-50
2021/09/30 03:00:43;;;;;;;;;1.00;0.67;;;;;15.16;52.46;102211.84;2092145;28;47970;-52
2021/09/30 03:01:47;;;;;;;;;0.25;0.00;;;;;15.16;52.51;102213.66;2091533;28;45342;-52
2021/09/30 03:02:52;;;;;;;;;0.00;0.00;;;;;15.16;52.53;102214.53;2085696;28;45454;-49
2021/09/30 03:03:55;;;;;;;;;0.25;0.25;;;;;15.17;52.58;102210.06;2091416;28;48438;-49
2021/09/30 03:04:56;;;;;;;;;0.25;0.25;;;;;15.17;52.38;102215.41;2083149;28;47172;-52
2021/09/30 03:05:56;;;;;;;;;0.75;0.75;;;;;15.17;52.82;102212.72;2083114;28;46967;-50
2021/09/30 03:06:59;;;;;;;;;0.00;0.00;;;;;15.18;52.59;102217.16;2092104;28;46440;-50
2021/09/30 03:08:00;;;;;;;;;2.00;0.75;;;;;15.17;52.20;102210.06;2091892;28;45463;-50
2021/09/30 03:09:05;;;;;;;;;3.00;1.00;;;;;15.17;52.24;102212.72;2092372;28;47500;-53
2021/09/30 03:10:08;;;;;;;;;1.00;0.00;;;;;15.16;52.40;102216.31;2091524;28;47187;-48
2021/09/30 03:11:09;;;;;;;;;0.00;0.00;;;;;15.16;52.84;102224.34;2083540;28;47783;-52
2021/09/30 03:12:48;;;;;;;;;0.25;0.25;;;;;15.16;52.41;102219.00;2087535;28;48390;-51
2021/09/30 03:13:44;;;;;;;;;1.25;1.25;;;;;15.15;52.93;102215.44;2086862;28;45182;-50
2021/09/30 03:14:48;;;;;;;;;1.00;1.00;;;;;15.16;52.45;102216.31;2089265;28;48140;-53
2021/09/30 03:16:01;;;;;;;;;1.00;1.00;;;;;15.15;52.37;102222.56;2089295;28;48497;-50
2021/09/30 03:17:03;;;;;;;;;0.50;0.50;;;;;15.14;52.35;102219.03;2090965;28;48285;-50
2021/09/30 03:22:50;;;;;;;;;0.00;0.00;;;;;15.14;52.75;102228.84;2092247;28;45309;-50
2021/09/30 03:23:52;;;;;;;;;0.75;0.00;;;;;15.14;52.62;102224.38;2091831;28;46121;-49
2021/09/30 03:24:52;;;;;;;;;0.00;0.00;;;;;15.14;52.76;102231.50;2092086;28;48224;-49
2021/09/30 03:25:54;;;;;;;;;2.33;1.00;;;;;15.14;53.10;102231.50;2091597;28;48386;-51
2021/09/30 03:26:55;;;;;;;;;2.75;1.00;;;;;15.14;52.51;102232.38;2092006;28;47082;-51
2021/09/30 03:27:56;;;;;;;;;0.00;0.00;;;;;15.13;52.52;102230.63;2091618;28;48492;-48
2021/09/30 03:28:57;;;;;;;;;1.00;1.00;;;;;15.13;52.75;102233.31;2092239;28;47310;-51
2021/09/30 03:29:57;;;;;;;;;0.00;0.00;;;;;15.13;53.00;102233.31;2091114;28;46847;-49
2021/09/30 03:31:01;;;;;;;;;1.33;0.33;;;;;15.13;52.83;102230.63;2091214;28;48007;-47
2021/09/30 03:32:03;;;;;;;;;1.00;0.00;;;;;15.13;53.09;102235.97;2091828;28;47201;-50
2021/09/30 03:33:07;;;;;;;;;1.75;0.00;;;;;15.13;52.70;102230.63;2091245;28;45616;-48
2021/09/30 03:34:08;;;;;;;;;1.25;0.75;;;;;15.13;52.96;102233.31;2083260;28;47458;-49
2021/09/30 03:35:09;;;;;;;;;1.75;0.50;;;;;15.13;52.96;102229.75;2082719;28;47327;-52
2021/09/30 03:36:10;;;;;;;;;1.67;1.67;;;;;15.15;53.02;102235.94;2091294;28;48072;-49
2021/09/30 03:37:10;;;;;;;;;1.00;1.00;;;;;15.14;52.72;102228.84;2091782;28;45280;-50
2021/09/30 03:38:11;;;;;;;;;1.67;1.67;;;;;15.14;52.70;102228.84;2087748;28;46313;-50
2021/09/30 03:39:22;;;;;;;;;0.00;0.00;;;;;15.13;52.64;102222.59;2091138;28;48602;-49
2021/09/30 03:40:23;;;;;;;;;0.00;0.00;;;;;15.13;52.83;102224.41;2091397;28;47390;-51
2021/09/30 03:41:24;;;;;;;;;1.00;1.00;;;;;15.14;52.61;102220.81;2091189;28;46410;-50
2021/09/30 03:42:24;;;;;;;;;1.00;1.00;;;;;15.13;52.65;102224.41;2090427;28;47154;-50
2021/09/30 03:43:26;;;;;;;;;1.00;1.00;;;;;15.12;52.60;102220.84;2091132;28;47262;-50
2021/09/30 03:44:27;;;;;;;;;2.00;1.00;;;;;15.13;52.61;102224.41;2091154;28;48653;-52
2021/09/30 03:45:28;;;;;;;;;0.67;0.00;;;;;15.12;52.62;102220.84;2091465;28;45419;-50
2021/09/30 03:46:28;;;;;;;;;1.00;1.00;;;;;15.13;52.36;102224.41;2092095;28;47562;-50
2021/09/30 03:47:29;;;;;;;;;1.00;1.00;;;;;15.12;52.68;102227.94;2090859;28;47393;-50
2021/09/30 03:48:29;;;;;;;;;0.67;0.00;;;;;15.10;52.79;102219.06;2091343;28;47105;-52
2021/09/30 03:49:32;;;;;;;;;0.00;0.00;;;;;15.11;52.50;102223.50;2091548;28;47390;-48
2021/09/30 03:50:45;;;;;;;;;1.00;1.00;;;;;15.09;52.75;102228.88;2087601;28;45401;-51
2021/09/30 03:57:23;;;;;;;;;0.67;0.67;;;;;15.08;52.68;102231.59;2089224;28;48244;-48
2021/09/30 03:59:19;;;;;;;;;1.25;1.00;;;;;15.07;53.31;102233.38;2088092;28;48795;-53
2021/09/30 04:00:20;;;;;;;;;2.25;2.00;;;;;15.08;53.26;102234.25;2088977;28;47285;-49
2021/09/30 04:01:20;;;;;;;;;1.00;1.00;;;;;15.09;53.49;102236.03;2089620;28;48319;-50
2021/09/30 04:02:21;;;;;;;;;1.00;1.00;;;;;15.08;52.89;102236.94;2088145;28;47426;-52
2021/09/30 04:03:21;;;;;;;;;3.67;1.67;;;;;15.07;52.93;102236.06;2090790;28;47954;-53
2021/09/30 04:04:26;;;;;;;;;1.00;1.00;;;;;15.07;53.09;102238.72;2091138;28;46363;-49
2021/09/30 04:05:26;;;;;;;;;1.00;1.00;;;;;15.06;53.14;102236.97;2091505;28;47580;-48
2021/09/30 04:06:27;;;;;;;;;1.00;1.00;;;;;15.06;53.33;102238.75;2091460;28;46355;-47
2021/09/30 04:07:27;;;;;;;;;3.00;2.00;;;;;15.06;53.26;102241.44;2091430;28;47187;-53
2021/09/30 04:08:29;;;;;;;;;1.00;1.00;;;;;15.06;53.35;102241.44;2091270;28;48047;-49
2021/09/30 04:09:30;;;;;;;;;1.00;1.00;;;;;15.05;53.38;102245.03;2090773;28;46346;-52
2021/09/30 04:10:30;;;;;;;;;5.00;1.00;;;;;15.04;53.57;102241.47;2087675;28;48259;-53
2021/09/30 04:11:30;;;;;;;;;2.00;2.00;;;;;15.05;53.07;102245.03;2090579;28;48372;-51
2021/09/30 04:12:31;;;;;;;;;3.00;3.00;;;;;15.05;53.52;102250.38;2091264;28;47251;-52
2021/09/30 04:13:31;;;;;;;;;2.00;2.00;;;;;15.04;52.93;102249.47;2090033;28;48350;-48
2021/09/30 04:14:32;;;;;;;;;1.00;1.00;;;;;15.04;53.42;102243.25;2090827;28;47908;-48
2021/09/30 04:15:32;;;;;;;;;1.33;1.33;;;;;15.04;53.42;102244.13;2091654;28;47251;-47
2021/09/30 04:16:33;;;;;;;;;3.00;2.00;;;;;15.04;53.49;102248.59;2088572;28;47161;-45
2021/09/30 04:17:33;;;;;;;;;2.00;2.00;;;;;15.02;53.35;102251.31;2090315;28;48093;-48
2021/09/30 04:18:34;;;;;;;;;3.00;3.00;;;;;15.01;53.63;102254.88;2089835;28;47920;-51
2021/09/30 04:19:34;;;;;;;;;3.33;2.00;;;;;15.02;53.34;102249.50;2090855;28;46020;-49
2021/09/30 04:20:36;;;;;;;;;0.33;0.33;;;;;15.01;53.43;102250.41;2090686;28;48244;-46
2021/09/30 04:21:36;;;;;;;;;1.75;1.00;;;;;15.00;53.52;102254.00;2088634;28;47545;-48
2021/09/30 04:22:37;;;;;;;;;1.00;1.00;;;;;15.00;53.42;102247.78;2082347;28;48170;-46
2021/09/30 04:23:37;;;;;;;;;2.00;2.00;;;;;15.00;53.47;102245.09;2082276;28;48143;-45
2021/09/30 04:24:40;;;;;;;;;1.00;1.00;;;;;14.99;53.47;102243.31;2088180;28;47179;-47
2021/09/30 04:25:41;;;;;;;;;3.50;2.00;;;;;14.98;53.41;102247.78;2088869;28;47462;-48
2021/09/30 04:26:42;;;;;;;;;2.67;1.33;;;;;14.98;53.23;102245.09;2091388;28;47187;-50
2021/09/30 04:27:43;;;;;;;;;2.50;1.50;;;;;14.98;53.64;102244.22;2082405;28;47175;-49
2021/09/30 04:28:43;;;;;;;;;1.67;1.00;;;;;14.99;53.71;102248.66;2082057;28;47270;-50
2021/09/30 04:29:44;;;;;;;;;1.67;1.67;;;;;14.99;53.49;102245.97;2099418;28;47068;-50
2021/09/30 04:30:45;;;;;;;;;1.00;1.00;;;;;14.97;53.66;102240.66;2090352;28;47661;-46
2021/09/30 04:31:46;;;;;;;;;1.00;1.00;;;;;14.98;53.59;102239.75;2090676;28;47230;-48
2021/09/30 04:32:47;;;;;;;;;1.25;1.25;;;;;14.97;53.58;102239.78;2098996;28;47529;-50
2021/09/30 04:33:47;;;;;;;;;0.00;0.00;;;;;14.97;53.89;102243.34;2090777;28;47960;-50
2021/09/30 04:34:47;;;;;;;;;2.67;2.67;;;;;14.97;53.58;102247.81;2090575;28;47970;-50
2021/09/30 04:35:49;;;;;;;;;6.67;6.00;;;;;14.96;53.60;102252.25;2091468;28;46644;-48
2021/09/30 04:36:49;;;;;;;;;5.25;4.00;;;;;14.93;53.38;102252.31;2091448;28;48112;-47
2021/09/30 04:37:50;;;;;;;;;4.67;3.00;;;;;14.93;53.49;102251.44;2091145;28;48420;-47
2021/09/30 04:38:51;;;;;;;;;5.00;5.00;;;;;14.93;53.57;102252.31;2091506;28;46969;-49
2021/09/30 04:39:52;;;;;;;;;8.75;8.75;;;;;14.93;54.05;102256.78;2080095;28;47672;-49
2021/09/30 04:40:52;;;;;;;;;13.00;12.25;;;;;14.92;53.94;102252.34;2080425;28;48068;-50
2021/09/30 04:41:53;;;;;;;;;9.00;8.67;;;;;14.93;53.96;102254.09;2079965;28;46271;-50
2021/09/30 04:42:54;;;;;;;;;5.67;3.00;;;;;14.93;54.00;102248.75;2080158;28;47426;-50
2021/09/30 04:43:54;;;;;;;;;4.00;4.00;;;;;14.91;54.07;102246.13;2088537;28;47356;-50
2021/09/30 04:44:55;;;;;;;;;2.33;2.00;;;;;14.91;54.14;102246.13;2090567;28;47441;-49
2021/09/30 04:45:56;;;;;;;;;1.25;1.25;;;;;14.93;54.08;102241.63;2100554;27;47483;-49
2021/09/30 04:46:56;;;;;;;;;3.00;3.00;;;;;14.95;53.84;102246.94;2091696;28;47741;-47
2021/09/30 04:47:57;;;;;;;;;3.00;3.00;;;;;14.93;53.78;102238.06;2091031;28;46359;-47
2021/09/30 04:48:57;;;;;;;;;2.00;2.00;;;;;14.93;54.04;102236.28;2091411;28;47108;-49
2021/09/30 04:49:58;;;;;;;;;3.00;2.00;;;;;14.92;53.68;102226.50;2094786;28;48474;-47
2021/09/30 04:50:58;;;;;;;;;2.00;2.00;;;;;14.91;54.12;102235.44;2103332;27;45364;-49
2021/09/30 04:51:58;;;;;;;;;2.00;2.00;;;;;14.92;54.12;102233.63;2098958;28;48093;-49
2021/09/30 04:53:01;;;;;;;;;2.33;2.33;;;;;14.91;54.04;102238.09;2091414;28;46122;-50
2021/09/30 04:54:03;;;;;;;;;4.00;2.25;;;;;14.90;54.14;102239.00;2091238;28;47486;-51
2021/09/30 04:55:04;;;;;;;;;1.75;1.75;;;;;14.90;54.34;102233.66;2089609;28;47864;-50
2021/09/30 04:56:05;;;;;;;;;2.50;2.00;;;;;14.90;54.08;102240.78;2089377;28;46481;-49
2021/09/30 04:57:05;;;;;;;;;2.00;2.00;;;;;14.90;54.08;102238.13;2091206;28;47353;-50
2021/09/30 04:58:06;;;;;;;;;2.00;2.00;;;;;14.89;54.21;102229.22;2091225;28;48089;-50
2021/09/30 04:59:07;;;;;;;;;4.67;4.67;;;;;14.89;54.03;102234.56;2091315;28;47509;-48
2021/09/30 05:00:08;;;;;;;;;2.25;2.25;;;;;14.88;53.98;102226.56;2090882;28;46479;-48
2021/09/30 05:01:09;;;;;;;;;3.00;3.00;;;;;14.88;53.84;102231.94;2086005;28;45486;-46
2021/09/30 05:02:09;;;;;;;;;3.00;2.00;;;;;14.87;54.05;102225.69;2091082;28;47345;-50
2021/09/30 05:03:09;;;;;;;;;3.00;3.00;;;;;14.86;54.03;102229.25;2089128;28;47251;-46
2021/09/30 05:04:10;;;;;;;;;2.67;2.67;;;;;14.87;54.40;102230.16;2087265;28;47462;-48
2021/09/30 05:05:11;;;;;;;;;3.00;3.00;;;;;14.86;54.19;102234.59;2090972;28;47242;-50
2021/09/30 05:06:11;;;;;;;;;3.33;3.33;;;;;14.85;53.98;102232.81;2090570;28;48751;-47
2021/09/30 05:07:12;;;;;;;;;2.67;2.67;;;;;14.86;54.47;102236.38;2089689;28;48444;-46
2021/09/30 05:08:12;;;;;;;;;2.67;2.67;;;;;14.86;54.41;102245.28;2090483;28;46889;-50
2021/09/30 05:09:13;;;;;;;;;4.00;4.00;;;;;14.85;54.45;102238.16;2082210;28;47202;-53
2021/09/30 05:10:18;;;;;;;;;2.67;2.67;;;;;14.84;53.95;102244.44;2082246;28;46267;-47
2021/09/30 05:11:18;;;;;;;;;4.00;4.00;;;;;14.84;54.20;102238.19;2082613;28;48200;-50
2021/09/30 05:12:21;;;;;;;;;3.33;3.33;;;;;14.84;54.65;102240.88;2090789;28;47973;-49
2021/09/30 05:13:35;;;;;;;;;3.50;3.50;;;;;14.83;54.60;102237.31;2098949;28;45441;-51
2021/09/30 05:14:36;;;;;;;;;1.00;1.00;;;;;14.83;54.52;102237.31;2105653;27;47778;-51
2021/09/30 05:15:37;;;;;;;;;3.00;3.00;;;;;14.83;54.60;102236.44;2091142;28;47195;-52
2021/09/30 05:16:37;;;;;;;;;4.75;4.75;;;;;14.83;54.35;102240.00;2082208;28;47182;-53
2021/09/30 05:17:37;;;;;;;;;5.33;4.33;;;;;14.84;54.38;102241.75;2085368;28;47066;-49
2021/09/30 05:18:44;;;;;;;;;3.33;3.00;;;;;14.84;54.54;102241.75;2085197;28;47180;-50
2021/09/30 05:19:44;;;;;;;;;4.25;3.25;;;;;14.85;54.32;102242.63;2081955;28;48056;-52
2021/09/30 05:20:45;;;;;;;;;4.67;3.67;;;;;14.84;54.28;102241.75;2083538;28;46724;-48
2021/09/30 05:21:45;;;;;;;;;6.00;6.00;;;;;14.83;54.33;102242.66;2086678;28;48102;-47
2021/09/30 05:22:46;;;;;;;;;5.00;5.00;;;;;14.81;54.27;102247.16;2091048;28;48012;-51
2021/09/30 05:23:48;;;;;;;;;3.33;3.33;;;;;14.79;54.57;102248.09;2090859;28;46150;-48
2021/09/30 05:24:48;;;;;;;;;4.50;4.00;;;;;14.78;54.64;102246.31;2088812;28;47548;-49
2021/09/30 05:25:49;;;;;;;;;4.00;4.00;;;;;14.77;54.38;102250.78;2089105;28;48138;-50
2021/09/30 05:26:50;;;;;;;;;4.75;4.75;;;;;14.75;54.57;102249.06;2091291;28;47629;-46
2021/09/30 05:27:52;;;;;;;;;4.67;3.00;;;;;14.75;54.62;102244.59;2090825;28;47418;-48
2021/09/30 05:28:53;;;;;;;;;4.00;3.75;;;;;14.72;54.63;102247.28;2091260;28;47359;-52
2021/09/30 05:29:53;;;;;;;;;4.00;2.00;;;;;14.70;54.97;102244.63;2091141;28;47667;-48
2021/09/30 05:30:54;;;;;;;;;3.67;3.67;;;;;14.69;54.66;102239.31;2091396;28;47229;-50
2021/09/30 05:31:55;;;;;;;;;5.33;4.67;;;;;14.68;54.59;102233.09;2090498;28;48109;-51
2021/09/30 05:32:55;;;;;;;;;5.00;5.00;;;;;14.68;55.04;102242.91;2091338;28;48384;-47
2021/09/30 05:33:56;;;;;;;;;4.67;4.67;;;;;14.68;54.67;102242.91;2089843;28;47229;-49
2021/09/30 05:34:57;;;;;;;;;2.00;2.00;;;;;14.67;54.52;102239.34;2090623;28;47383;-50
2021/09/30 05:35:57;;;;;;;;;5.00;5.00;;;;;14.66;54.89;102242.91;2091324;28;47332;-47
2021/09/30 05:36:58;;;;;;;;;7.00;5.33;;;;;14.66;54.92;102242.03;2092866;28;48186;-46
2021/09/30 05:37:58;;;;;;;;;4.00;4.00;;;;;14.65;54.69;102245.63;2092185;28;47351;-49
2021/09/30 05:38:59;;;;;;;;;4.67;4.67;;;;;14.64;54.78;102243.84;2092804;28;47960;-48
2021/09/30 05:39:59;;;;;;;;;5.00;4.00;;;;;14.62;54.95;102243.88;2092416;28;46528;-50
2021/09/30 05:41:00;;;;;;;;;4.00;4.00;;;;;14.62;54.65;102243.00;2092649;28;47983;-50
2021/09/30 05:42:00;;;;;;;;;3.00;3.00;;;;;14.62;54.85;102253.69;2092327;28;46137;-50
2021/09/30 05:43:02;;;;;;;;;6.67;4.33;;;;;14.62;55.03;102245.66;2092606;28;47886;-48
2021/09/30 05:44:10;;;;;;;;;4.25;4.25;;;;;14.64;54.88;102241.19;2092242;28;47205;-47
2021/09/30 05:45:14;;;;;;;;;4.00;4.00;;;;;14.63;55.02;102252.78;2092486;28;48216;-48
2021/09/30 05:46:16;;;;;;;;;5.50;5.00;;;;;14.64;55.17;102249.19;2093060;28;47631;-50
2021/09/30 05:47:17;;;;;;;;;4.50;4.50;;;;;14.64;54.58;102243.84;2092441;28;46837;-48
2021/09/30 05:48:18;;;;;;;;;3.00;3.00;;;;;14.63;54.98;102250.09;2092464;28;48368;-51
2021/09/30 05:49:20;;;;;;;;;3.33;3.33;;;;;14.63;54.87;102250.09;2092071;28;47992;-48
2021/09/30 05:50:20;;;;;;;;;4.00;4.00;;;;;14.62;54.97;102251.91;2092110;28;47860;-48
2021/09/30 05:51:21;;;;;;;;;6.33;5.00;;;;;14.61;54.80;102254.56;2091535;28;47137;-50
2021/09/30 05:52:21;;;;;;;;;4.00;4.00;;;;;14.61;54.67;102251.88;2092373;28;47963;-49
2021/09/30 05:53:22;;;;;;;;;3.67;3.67;;;;;14.59;55.10;102254.59;2091647;28;48431;-51
2021/09/30 05:54:23;;;;;;;;;4.00;4.00;;;;;14.61;54.95;102259.91;2091075;28;47239;-49
2021/09/30 05:55:23;;;;;;;;;3.67;3.67;;;;;14.60;55.23;102252.78;2087085;28;47342;-50
2021/09/30 05:56:24;;;;;;;;;5.00;5.00;;;;;14.59;54.89;102254.59;2087695;28;46388;-51
2021/09/30 05:57:24;;;;;;;;;4.00;4.00;;;;;14.60;55.08;102258.13;2086649;28;46264;-50
2021/09/30 05:58:25;;;;;;;;;4.67;4.67;;;;;14.61;54.96;102251.88;2090068;28;48143;-46
2021/09/30 05:59:25;;;;;;;;;5.00;5.00;;;;;14.61;54.86;102260.81;2088722;28;47269;-49
2021/09/30 06:00:39;;;;;;;;;8.00;7.00;;;;;14.62;54.93;102256.34;2085199;28;47087;-50
2021/09/30 06:10:02;;;;;;;;;6.25;4.00;;;;;14.64;55.19;102242.06;2092411;28;45281;-50
2021/09/30 06:13:12;;;;;;;;;4.00;4.00;;;;;14.68;55.05;102256.25;2089374;28;45244;-50
2021/09/30 06:14:16;;;;;;;;;3.00;3.00;;;;;14.70;55.24;102251.78;2092663;28;45267;-46
2021/09/30 06:15:26;;;;;;;;;7.25;7.25;;;;;14.70;54.89;102249.09;2092186;28;47301;-52
2021/09/30 06:16:26;;;;;;;;;4.00;4.00;;;;;14.71;54.71;102253.53;2088324;28;47466;-50
2021/09/30 06:17:28;;;;;;;;;6.00;6.00;;;;;14.71;54.98;102256.22;2085677;28;47108;-51
2021/09/30 06:18:29;;;;;;;;;9.25;6.25;;;;;14.73;54.81;102254.38;2091486;28;47236;-49
2021/09/30 06:19:29;;;;;;;;;5.00;4.00;;;;;14.73;55.01;102259.72;2095628;28;47299;-47
2021/09/30 06:20:30;;;;;;;;;5.33;5.33;;;;;14.75;54.77;102257.06;2092413;28;48148;-48
2021/09/30 06:21:31;;;;;;;;;4.33;3.67;;;;;14.75;55.03;102257.94;2092144;28;48184;-48
2021/09/30 06:22:31;;;;;;;;;2.33;2.33;;;;;14.77;54.83;102252.59;2088689;28;47226;-49
2021/09/30 06:23:32;;;;;;;;;5.00;5.00;;;;;14.78;54.84;102257.91;2088691;28;47605;-51
2021/09/30 06:24:33;;;;;;;;;5.33;5.00;;;;;14.78;54.88;102255.22;2090277;28;46897;-51
2021/09/30 06:25:34;;;;;;;;;7.00;4.25;;;;;14.79;54.64;102259.66;2091512;28;47684;-51
2021/09/30 06:26:34;;;;;;;;;6.33;5.33;;;;;14.80;54.47;102260.53;2091750;28;46621;-51
2021/09/30 06:27:36;;;;;;;;;5.67;5.67;;;;;14.80;54.94;102257.88;2091493;28;46619;-50
2021/09/30 06:28:37;;;;;;;;;5.00;5.00;;;;;14.79;54.88;102259.66;2091240;28;45277;-51
2021/09/30 06:29:37;;;;;;;;;4.67;4.67;;;;;14.81;54.81;102262.31;2091700;28;46434;-53
2021/09/30 06:30:38;;;;;;;;;7.00;5.67;;;;;14.82;54.98;102258.72;2091792;28;45137;-51
2021/09/30 06:31:39;;;;;;;;;5.00;4.00;;;;;14.83;54.93;102260.50;2091396;28;48399;-50
2021/09/30 06:32:40;;;;;;;;;5.00;5.00;;;;;14.82;54.64;102258.72;2091803;28;47081;-52
2021/09/30 06:33:40;;;;;;;;;3.67;3.67;;;;;14.83;54.97;102257.81;2092142;28;47475;-48
2021/09/30 06:34:41;;;;;;;;;5.33;5.33;;;;;14.83;54.90;102253.34;2090880;28;47746;-50
2021/09/30 06:35:42;;;;;;;;;7.25;5.50;;;;;14.84;54.71;102254.25;2091263;28;47020;-52
2021/09/30 06:36:43;;;;;;;;;7.25;7.25;;;;;14.86;54.69;102264.00;2082910;28;46550;-50
2021/09/30 06:37:44;;;;;;;;;7.67;6.33;;;;;14.85;54.81;102256.88;2083252;28;46904;-50
2021/09/30 06:38:44;;;;;;;;;5.67;5.67;;;;;14.86;54.85;102255.97;2091480;28;45372;-51
2021/09/30 06:39:44;;;;;;;;;3.00;2.00;;;;;14.87;54.90;102254.22;2091420;28;47227;-51
2021/09/30 06:40:45;;;;;;;;;7.00;6.00;;;;;14.88;54.73;102247.97;2091650;28;47347;-49
2021/09/30 06:41:46;;;;;;;;;7.67;6.00;;;;;14.89;54.64;102255.97;2083115;28;47666;-47
2021/09/30 06:42:46;;;;;;;;;6.33;5.00;;;;;14.90;54.52;102252.38;2083038;28;47312;-50
2021/09/30 06:43:47;;;;;;;;;6.67;6.67;;;;;14.91;54.52;102248.78;2091456;28;47756;-49
2021/09/30 06:44:49;;;;;;;;;5.00;4.75;;;;;14.93;54.91;102254.09;2091443;28;45625;-49
2021/09/30 06:45:51;;;;;;;;;5.25;4.50;;;;;14.93;54.44;102251.44;2093923;28;45324;-52
2021/09/30 06:46:51;;;;;;;;;6.00;5.25;;;;;14.94;54.20;102254.09;2089467;28;48049;-52
2021/09/30 06:47:52;;;;;;;;;5.00;5.00;;;;;14.93;54.98;102249.66;2090828;28;46628;-49
2021/09/30 06:48:52;;;;;;;;;6.00;6.00;;;;;14.95;54.96;102255.84;2082729;28;48196;-50
2021/09/30 06:49:52;;;;;;;;;4.67;4.67;;;;;14.96;54.49;102246.03;2085822;28;47442;-51
2021/09/30 06:50:53;;;;;;;;;4.33;4.33;;;;;14.96;54.93;102251.38;2100448;27;48425;-50
2021/09/30 06:51:54;;;;;;;;;6.00;5.00;;;;;14.97;54.97;102246.00;2093684;27;46902;-51
2021/09/30 06:52:54;;;;;;;;;8.00;7.33;;;;;14.98;54.84;102244.22;2091883;28;47082;-52
2021/09/30 06:53:55;;;;;;;;;10.50;10.50;;;;;14.99;54.70;102241.53;2092122;28;47191;-52
2021/09/30 06:54:55;;;;;;;;;12.25;12.25;;;;;15.00;54.53;102251.34;2091494;28;46366;-51
2021/09/30 06:56:03;;;;;;;;;10.33;9.67;;;;;15.01;54.54;102244.19;2091373;28;47285;-52
2021/09/30 06:57:04;;;;;;;;;13.60;13.60;;;;;15.00;54.71;102240.63;2091828;28;45699;-52
2021/09/30 06:58:05;;;;;;;;;10.00;10.00;;;;;15.01;54.52;102242.41;2091917;28;47923;-50
2021/09/30 06:59:07;;;;;;;;;9.67;9.67;;;;;15.02;54.73;102246.84;2091992;28;48658;-51
2021/09/30 07:00:12;;;;;;;;;10.25;8.50;;;;;15.02;54.57;102244.16;2091971;28;46755;-49
2021/09/30 07:01:16;;;;;;;;;7.50;7.50;;;;;15.02;54.57;102241.50;2091855;28;47159;-47
2021/09/30 07:02:18;;;;;;;;;8.50;8.00;;;;;15.02;54.49;102241.50;2091945;28;47316;-47
2021/09/30 07:03:19;;;;;;;;;7.75;7.00;;;;;15.03;54.21;102239.69;2091681;28;47204;-53
2021/09/30 07:04:19;;;;;;;;;9.00;7.00;;;;;15.04;54.73;102240.59;2099644;28;47784;-53
2021/09/30 07:05:20;;;;;;;;;8.00;6.33;;;;;15.04;54.74;102233.44;2099501;28;47342;-53
2021/09/30 07:06:20;;;;;;;;;6.00;6.00;;;;;15.05;54.39;102239.66;2092121;28;45701;-51
2021/09/30 07:07:21;;;;;;;;;7.00;7.00;;;;;15.07;54.64;102245.88;2091998;28;46411;-49
2021/09/30 07:08:21;;;;;;;;;6.00;6.00;;;;;15.07;54.32;102238.72;2091949;28;47349;-53
2021/09/30 07:09:22;;;;;;;;;9.00;8.00;;;;;15.09;54.13;102241.38;2091797;28;47322;-53
2021/09/30 07:10:22;;;;;;;;;6.67;6.67;;;;;15.08;54.57;102237.81;2091819;28;47902;-49
2021/09/30 07:11:23;;;;;;;;;6.67;6.67;;;;;15.09;54.17;102228.88;2091559;28;47410;-49
2021/09/30 07:12:23;;;;;;;;;8.33;8.33;;;;;15.11;54.32;102235.09;2091804;28;46647;-50
2021/09/30 07:13:25;;;;;;;;;8.00;6.00;;;;;15.11;54.02;102228.84;2091884;28;47578;-47
2021/09/30 07:14:29;;;;;;;;;7.00;7.00;;;;;15.13;54.10;102230.63;2091639;28;48238;-51
2021/09/30 07:15:29;;;;;;;;;9.75;8.25;;;;;15.14;54.38;102231.50;2091845;28;47246;-51
2021/09/30 07:16:30;;;;;;;;;7.33;7.33;;;;;15.14;54.38;102231.50;2088930;28;48012;-51
2021/09/30 07:17:30;;;;;;;;;6.00;6.00;;;;;15.16;54.32;102229.69;2088645;28;48163;-47
2021/09/30 07:18:31;;;;;;;;;6.00;6.00;;;;;15.15;53.94;102231.47;2091297;28;46976;-49
2021/09/30 07:19:33;;;;;;;;;8.33;7.33;;;;;15.16;54.04;102227.91;2095368;28;47114;-50
2021/09/30 07:20:33;;;;;;;;;7.75;6.00;;;;;15.18;54.08;102236.78;2091888;28;48127;-51
2021/09/30 07:21:35;;;;;;;;;8.00;7.00;;;;;15.19;54.13;102235.84;2091727;28;47312;-50
2021/09/30 07:22:35;;;;;;;;;8.25;7.25;;;;;15.19;53.92;102235.84;2091948;28;48265;-50
2021/09/30 07:23:36;;;;;;;;;9.33;8.00;;;;;15.21;53.78;102242.06;2091289;28;47029;-50
2021/09/30 07:24:37;;;;;;;;;8.67;8.67;;;;;15.21;54.11;102241.19;2091191;28;47114;-52
2021/09/30 07:25:38;;;;;;;;;8.00;8.00;;;;;15.21;53.86;102242.06;2091641;28;48493;-52
2021/09/30 07:26:38;;;;;;;;;7.00;7.00;;;;;15.22;53.86;102249.16;2091237;28;46926;-50
2021/09/30 07:27:39;;;;;;;;;10.00;8.00;;;;;15.22;53.62;102249.16;2091181;28;48208;-51
2021/09/30 07:28:40;;;;;;;;;9.00;6.33;;;;;15.23;53.57;102248.25;2091852;28;46036;-51
2021/09/30 07:29:40;;;;;;;;;10.33;9.00;;;;;15.26;53.67;102255.38;2091031;28;48216;-49
2021/09/30 07:30:41;;;;;;;;;2.00;1.67;;;;;15.26;53.65;102252.69;2091682;28;47593;-51
2021/09/30 07:31:42;;;;;;;;;7.67;7.00;;;;;15.26;53.89;102256.25;2089657;28;47249;-49
2021/09/30 07:32:42;;;;;;;;;6.33;6.33;;;;;15.28;53.55;102253.56;2091011;28;48378;-48
2021/09/30 07:33:42;;;;;;;;;9.00;9.00;;;;;15.29;53.59;102255.31;2091594;28;47108;-52
2021/09/30 07:34:43;;;;;;;;;6.25;6.25;;;;;15.28;54.07;102249.09;2082878;28;47144;-53
2021/09/30 07:35:44;;;;;;;;;7.75;7.75;;;;;15.30;53.68;102252.63;2082920;28;48166;-51
2021/09/30 07:36:46;;;;;;;;;8.00;7.75;;;;;15.31;53.87;102256.16;2091606;28;48339;-51